< < Back
Terminal Aerodrome Forecast


Current Version              Previous Versions:   1  2  3  4  5  6  7  8  9  

Terminal Aerodrome Forecast

931
FTUS44 KHUN 271732
TAFHSV
TAF
KHSV 271732Z 2718/2818 11005KT P6SM VCTS SCT035 BKN060CB
     FM280100 VRB03KT P6SM SCT050
     FM280800 VRB02KT 5SM BR FEW250
     FM281300 11005KT P6SM FEW250=



Latest METAR

880
SAUS80 KWBC 280700 RRB
MTRHSV
METAR KHSV 280653Z AUTO 09004KT 10SM CLR 25/22 A3008 RMK AO2 SLP178
T02500217 $


USA.gov is the U.S. government's official web portal to all federal, state and local government web resources and services.